sensor_id;sensor_type;location;lat;lon;timestamp;P1;durP1;ratioP1;P2;durP2;ratioP2
50781;SDS011;36749;37.428;-121.972;2024-02-28T00:01:37;3.13;;;1.23;;
50781;SDS011;36749;37.428;-121.972;2024-02-28T00:04:03;6.28;;;2.10;;
50781;SDS011;36749;37.428;-121.972;2024-02-28T00:06:30;1.98;;;1.45;;
50781;SDS011;36749;37.428;-121.972;2024-02-28T00:08:56;5.63;;;1.50;;
50781;SDS011;36749;37.428;-121.972;2024-02-28T00:11:22;4.45;;;1.58;;
50781;SDS011;36749;37.428;-121.972;2024-02-28T00:13:48;3.17;;;1.55;;
50781;SDS011;36749;37.428;-121.972;2024-02-28T00:16:14;6.22;;;1.98;;
50781;SDS011;36749;37.428;-121.972;2024-02-28T00:18:40;3.90;;;1.50;;
50781;SDS011;36749;37.428;-121.972;2024-02-28T00:21:27;14.43;;;2.35;;
50781;SDS011;36749;37.428;-121.972;2024-02-28T00:23:53;7.40;;;1.40;;
50781;SDS011;36749;37.428;-121.972;2024-02-28T00:26:19;3.25;;;1.50;;
50781;SDS011;36749;37.428;-121.972;2024-02-28T00:28:45;4.70;;;1.80;;
50781;SDS011;36749;37.428;-121.972;2024-02-28T00:31:11;4.43;;;1.45;;
50781;SDS011;36749;37.428;-121.972;2024-02-28T00:33:37;5.97;;;1.55;;
50781;SDS011;36749;37.428;-121.972;2024-02-28T00:36:04;3.60;;;1.50;;
50781;SDS011;36749;37.428;-121.972;2024-02-28T00:38:30;4.25;;;1.35;;
50781;SDS011;36749;37.428;-121.972;2024-02-28T00:40:56;4.47;;;1.35;;
50781;SDS011;36749;37.428;-121.972;2024-02-28T00:43:22;4.57;;;1.55;;
50781;SDS011;36749;37.428;-121.972;2024-02-28T00:45:48;3.80;;;1.42;;
50781;SDS011;36749;37.428;-121.972;2024-02-28T00:48:14;9.52;;;1.70;;
50781;SDS011;36749;37.428;-121.972;2024-02-28T00:50:40;6.20;;;1.67;;
50781;SDS011;36749;37.428;-121.972;2024-02-28T00:53:07;8.52;;;1.52;;
50781;SDS011;36749;37.428;-121.972;2024-02-28T00:55:33;5.80;;;1.75;;
50781;SDS011;36749;37.428;-121.972;2024-02-28T00:57:59;4.53;;;1.90;;
50781;SDS011;36749;37.428;-121.972;2024-02-28T01:00:26;6.43;;;1.77;;
50781;SDS011;36749;37.428;-121.972;2024-02-28T01:02:52;4.63;;;1.55;;
50781;SDS011;36749;37.428;-121.972;2024-02-28T01:05:18;3.50;;;1.63;;
50781;SDS011;36749;37.428;-121.972;2024-02-28T01:07:44;5.43;;;1.40;;
50781;SDS011;36749;37.428;-121.972;2024-02-28T01:10:10;2.55;;;1.73;;
50781;SDS011;36749;37.428;-121.972;2024-02-28T01:12:36;4.85;;;1.38;;
50781;SDS011;36749;37.428;-121.972;2024-02-28T01:15:03;4.13;;;1.20;;
50781;SDS011;36749;37.428;-121.972;2024-02-28T01:17:29;7.95;;;1.80;;
50781;SDS011;36749;37.428;-121.972;2024-02-28T01:19:56;4.88;;;1.42;;
50781;SDS011;36749;37.428;-121.972;2024-02-28T01:22:22;3.97;;;1.42;;
50781;SDS011;36749;37.428;-121.972;2024-02-28T01:24:49;4.20;;;1.30;;
50781;SDS011;36749;37.428;-121.972;2024-02-28T01:27:15;5.53;;;1.58;;
50781;SDS011;36749;37.428;-121.972;2024-02-28T01:29:41;5.35;;;1.40;;
50781;SDS011;36749;37.428;-121.972;2024-02-28T01:32:08;5.38;;;1.92;;
50781;SDS011;36749;37.428;-121.972;2024-02-28T01:34:34;22.45;;;2.80;;
50781;SDS011;36749;37.428;-121.972;2024-02-28T01:37:00;7.72;;;1.60;;
50781;SDS011;36749;37.428;-121.972;2024-02-28T01:39:26;6.88;;;1.55;;
50781;SDS011;36749;37.428;-121.972;2024-02-28T01:41:55;5.03;;;1.50;;
50781;SDS011;36749;37.428;-121.972;2024-02-28T01:44:22;6.00;;;1.63;;
50781;SDS011;36749;37.428;-121.972;2024-02-28T01:46:48;5.40;;;1.73;;
50781;SDS011;36749;37.428;-121.972;2024-02-28T01:49:15;12.82;;;1.95;;
50781;SDS011;36749;37.428;-121.972;2024-02-28T01:51:42;13.68;;;2.17;;
50781;SDS011;36749;37.428;-121.972;2024-02-28T01:54:10;7.43;;;1.73;;
50781;SDS011;36749;37.428;-121.972;2024-02-28T01:56:37;8.25;;;2.10;;
50781;SDS011;36749;37.428;-121.972;2024-02-28T01:59:04;4.80;;;1.85;;
50781;SDS011;36749;37.428;-121.972;2024-02-28T02:01:30;9.15;;;1.88;;
50781;SDS011;36749;37.428;-121.972;2024-02-28T02:03:56;9.18;;;2.00;;
50781;SDS011;36749;37.428;-121.972;2024-02-28T02:06:22;5.30;;;1.90;;
50781;SDS011;36749;37.428;-121.972;2024-02-28T02:08:49;4.90;;;1.73;;
50781;SDS011;36749;37.428;-121.972;2024-02-28T02:11:16;13.32;;;2.38;;
50781;SDS011;36749;37.428;-121.972;2024-02-28T02:13:52;4.40;;;1.50;;
50781;SDS011;36749;37.428;-121.972;2024-02-28T02:16:19;8.20;;;2.05;;
50781;SDS011;36749;37.428;-121.972;2024-02-28T02:18:51;5.60;;;1.63;;
50781;SDS011;36749;37.428;-121.972;2024-02-28T02:21:18;10.52;;;1.95;;
50781;SDS011;36749;37.428;-121.972;2024-02-28T02:23:45;10.13;;;2.10;;
50781;SDS011;36749;37.428;-121.972;2024-02-28T02:26:11;4.68;;;1.92;;
50781;SDS011;36749;37.428;-121.972;2024-02-28T02:28:38;10.77;;;2.00;;
50781;SDS011;36749;37.428;-121.972;2024-02-28T02:31:04;6.45;;;1.85;;
50781;SDS011;36749;37.428;-121.972;2024-02-28T02:33:30;8.10;;;1.77;;
50781;SDS011;36749;37.428;-121.972;2024-02-28T02:35:56;7.30;;;1.70;;
50781;SDS011;36749;37.428;-121.972;2024-02-28T02:38:23;7.78;;;2.47;;
50781;SDS011;36749;37.428;-121.972;2024-02-28T02:40:50;4.45;;;1.70;;
50781;SDS011;36749;37.428;-121.972;2024-02-28T02:43:16;6.85;;;2.08;;
50781;SDS011;36749;37.428;-121.972;2024-02-28T02:45:43;11.57;;;1.92;;
50781;SDS011;36749;37.428;-121.972;2024-02-28T02:48:09;9.50;;;2.38;;
50781;SDS011;36749;37.428;-121.972;2024-02-28T02:50:36;11.30;;;2.15;;
50781;SDS011;36749;37.428;-121.972;2024-02-28T02:53:02;5.70;;;2.22;;
50781;SDS011;36749;37.428;-121.972;2024-02-28T02:55:29;10.80;;;2.42;;
50781;SDS011;36749;37.428;-121.972;2024-02-28T02:57:56;13.30;;;2.60;;
50781;SDS011;36749;37.428;-121.972;2024-02-28T03:00:22;8.23;;;2.38;;
50781;SDS011;36749;37.428;-121.972;2024-02-28T03:02:48;7.78;;;1.80;;
50781;SDS011;36749;37.428;-121.972;2024-02-28T03:05:14;10.55;;;2.38;;
50781;SDS011;36749;37.428;-121.972;2024-02-28T03:07:40;10.65;;;2.03;;
50781;SDS011;36749;37.428;-121.972;2024-02-28T03:10:06;11.10;;;2.15;;
50781;SDS011;36749;37.428;-121.972;2024-02-28T03:12:34;10.80;;;2.58;;
50781;SDS011;36749;37.428;-121.972;2024-02-28T03:15:00;11.32;;;3.13;;
50781;SDS011;36749;37.428;-121.972;2024-02-28T03:17:28;11.07;;;2.22;;
50781;SDS011;36749;37.428;-121.972;2024-02-28T03:19:55;7.20;;;2.20;;
50781;SDS011;36749;37.428;-121.972;2024-02-28T03:22:21;10.68;;;2.83;;
50781;SDS011;36749;37.428;-121.972;2024-02-28T03:24:47;11.38;;;2.58;;
50781;SDS011;36749;37.428;-121.972;2024-02-28T03:27:14;11.45;;;2.75;;
50781;SDS011;36749;37.428;-121.972;2024-02-28T03:29:40;15.35;;;3.08;;
50781;SDS011;36749;37.428;-121.972;2024-02-28T03:32:06;12.90;;;3.00;;
50781;SDS011;36749;37.428;-121.972;2024-02-28T03:34:33;9.88;;;2.13;;
50781;SDS011;36749;37.428;-121.972;2024-02-28T03:36:59;21.92;;;3.05;;
50781;SDS011;36749;37.428;-121.972;2024-02-28T03:39:26;11.70;;;2.60;;
50781;SDS011;36749;37.428;-121.972;2024-02-28T03:41:52;16.25;;;3.42;;
50781;SDS011;36749;37.428;-121.972;2024-02-28T03:44:18;12.93;;;2.92;;
50781;SDS011;36749;37.428;-121.972;2024-02-28T03:46:46;10.90;;;2.50;;
50781;SDS011;36749;37.428;-121.972;2024-02-28T03:49:12;11.60;;;2.83;;
50781;SDS011;36749;37.428;-121.972;2024-02-28T03:51:40;14.05;;;3.28;;
50781;SDS011;36749;37.428;-121.972;2024-02-28T03:54:06;15.25;;;2.90;;
50781;SDS011;36749;37.428;-121.972;2024-02-28T03:56:33;18.38;;;3.10;;
50781;SDS011;36749;37.428;-121.972;2024-02-28T03:59:00;12.43;;;3.08;;
50781;SDS011;36749;37.428;-121.972;2024-02-28T04:01:27;12.80;;;3.65;;
50781;SDS011;36749;37.428;-121.972;2024-02-28T04:03:53;8.77;;;2.50;;
50781;SDS011;36749;37.428;-121.972;2024-02-28T04:06:19;12.70;;;2.88;;
50781;SDS011;36749;37.428;-121.972;2024-02-28T04:08:45;19.98;;;3.33;;
50781;SDS011;36749;37.428;-121.972;2024-02-28T04:11:11;18.90;;;3.80;;
50781;SDS011;36749;37.428;-121.972;2024-02-28T04:13:38;16.48;;;3.13;;
50781;SDS011;36749;37.428;-121.972;2024-02-28T04:16:04;13.32;;;2.83;;
50781;SDS011;36749;37.428;-121.972;2024-02-28T04:18:30;10.57;;;2.67;;
50781;SDS011;36749;37.428;-121.972;2024-02-28T04:20:57;11.98;;;3.05;;
50781;SDS011;36749;37.428;-121.972;2024-02-28T04:23:23;10.63;;;2.60;;
50781;SDS011;36749;37.428;-121.972;2024-02-28T04:25:49;11.77;;;2.80;;
50781;SDS011;36749;37.428;-121.972;2024-02-28T04:28:15;7.85;;;2.20;;
50781;SDS011;36749;37.428;-121.972;2024-02-28T04:30:41;15.50;;;3.22;;
50781;SDS011;36749;37.428;-121.972;2024-02-28T04:33:08;19.05;;;3.47;;
50781;SDS011;36749;37.428;-121.972;2024-02-28T04:35:34;7.65;;;2.17;;
50781;SDS011;36749;37.428;-121.972;2024-02-28T04:38:00;12.30;;;3.15;;
50781;SDS011;36749;37.428;-121.972;2024-02-28T04:40:26;10.55;;;2.53;;
50781;SDS011;36749;37.428;-121.972;2024-02-28T04:42:52;14.45;;;3.78;;
50781;SDS011;36749;37.428;-121.972;2024-02-28T04:45:19;10.60;;;2.75;;
50781;SDS011;36749;37.428;-121.972;2024-02-28T04:47:45;12.82;;;2.75;;
50781;SDS011;36749;37.428;-121.972;2024-02-28T04:50:11;13.65;;;2.75;;
50781;SDS011;36749;37.428;-121.972;2024-02-28T04:52:38;9.55;;;2.53;;
50781;SDS011;36749;37.428;-121.972;2024-02-28T04:55:04;8.77;;;2.60;;
50781;SDS011;36749;37.428;-121.972;2024-02-28T04:57:31;14.15;;;2.92;;
50781;SDS011;36749;37.428;-121.972;2024-02-28T04:59:57;11.27;;;2.70;;
50781;SDS011;36749;37.428;-121.972;2024-02-28T05:02:23;12.50;;;2.50;;
50781;SDS011;36749;37.428;-121.972;2024-02-28T05:04:51;12.98;;;3.38;;
50781;SDS011;36749;37.428;-121.972;2024-02-28T05:07:17;14.23;;;3.28;;
50781;SDS011;36749;37.428;-121.972;2024-02-28T05:09:43;8.23;;;2.63;;
50781;SDS011;36749;37.428;-121.972;2024-02-28T05:12:10;13.73;;;3.10;;
50781;SDS011;36749;37.428;-121.972;2024-02-28T05:14:37;8.65;;;2.35;;
50781;SDS011;36749;37.428;-121.972;2024-02-28T05:17:03;14.40;;;2.70;;
50781;SDS011;36749;37.428;-121.972;2024-02-28T05:19:30;11.15;;;2.47;;
50781;SDS011;36749;37.428;-121.972;2024-02-28T05:21:56;13.13;;;3.17;;
50781;SDS011;36749;37.428;-121.972;2024-02-28T05:24:22;16.33;;;3.13;;
50781;SDS011;36749;37.428;-121.972;2024-02-28T05:26:48;12.63;;;2.88;;
50781;SDS011;36749;37.428;-121.972;2024-02-28T05:29:14;12.68;;;2.90;;
50781;SDS011;36749;37.428;-121.972;2024-02-28T05:31:40;11.50;;;3.22;;
50781;SDS011;36749;37.428;-121.972;2024-02-28T05:34:07;12.45;;;2.65;;
50781;SDS011;36749;37.428;-121.972;2024-02-28T05:36:33;15.63;;;3.03;;
50781;SDS011;36749;37.428;-121.972;2024-02-28T05:38:59;11.48;;;2.92;;
50781;SDS011;36749;37.428;-121.972;2024-02-28T05:41:31;15.82;;;3.55;;
50781;SDS011;36749;37.428;-121.972;2024-02-28T05:43:57;11.07;;;2.80;;
50781;SDS011;36749;37.428;-121.972;2024-02-28T05:46:23;13.10;;;3.42;;
50781;SDS011;36749;37.428;-121.972;2024-02-28T05:48:49;12.18;;;3.25;;
50781;SDS011;36749;37.428;-121.972;2024-02-28T05:51:16;16.55;;;3.10;;
50781;SDS011;36749;37.428;-121.972;2024-02-28T05:53:42;14.07;;;3.13;;
50781;SDS011;36749;37.428;-121.972;2024-02-28T05:56:08;14.50;;;3.65;;
50781;SDS011;36749;37.428;-121.972;2024-02-28T05:58:45;15.45;;;2.65;;
50781;SDS011;36749;37.428;-121.972;2024-02-28T06:01:13;11.18;;;2.70;;
50781;SDS011;36749;37.428;-121.972;2024-02-28T06:03:42;11.43;;;2.55;;
50781;SDS011;36749;37.428;-121.972;2024-02-28T06:06:10;10.38;;;2.53;;
50781;SDS011;36749;37.428;-121.972;2024-02-28T06:08:39;10.82;;;3.40;;
50781;SDS011;36749;37.428;-121.972;2024-02-28T06:11:06;12.05;;;2.90;;
50781;SDS011;36749;37.428;-121.972;2024-02-28T06:13:33;12.48;;;2.38;;
50781;SDS011;36749;37.428;-121.972;2024-02-28T06:15:59;12.30;;;2.60;;
50781;SDS011;36749;37.428;-121.972;2024-02-28T06:18:25;11.75;;;2.90;;
50781;SDS011;36749;37.428;-121.972;2024-02-28T06:20:55;6.93;;;2.70;;
50781;SDS011;36749;37.428;-121.972;2024-02-28T06:23:22;14.32;;;3.10;;
50781;SDS011;36749;37.428;-121.972;2024-02-28T06:25:48;12.45;;;3.63;;
50781;SDS011;36749;37.428;-121.972;2024-02-28T06:28:15;12.27;;;3.83;;
50781;SDS011;36749;37.428;-121.972;2024-02-28T06:30:42;11.15;;;3.70;;
50781;SDS011;36749;37.428;-121.972;2024-02-28T06:33:11;14.43;;;3.35;;
50781;SDS011;36749;37.428;-121.972;2024-02-28T06:35:38;15.75;;;4.72;;
50781;SDS011;36749;37.428;-121.972;2024-02-28T06:38:05;15.65;;;3.58;;
50781;SDS011;36749;37.428;-121.972;2024-02-28T06:40:31;13.05;;;4.07;;
50781;SDS011;36749;37.428;-121.972;2024-02-28T06:42:57;9.70;;;3.30;;
50781;SDS011;36749;37.428;-121.972;2024-02-28T06:45:23;11.63;;;3.47;;
50781;SDS011;36749;37.428;-121.972;2024-02-28T06:47:50;14.23;;;3.70;;
50781;SDS011;36749;37.428;-121.972;2024-02-28T06:50:16;10.95;;;2.75;;
50781;SDS011;36749;37.428;-121.972;2024-02-28T06:52:42;14.18;;;3.38;;
50781;SDS011;36749;37.428;-121.972;2024-02-28T06:55:09;13.32;;;3.10;;
50781;SDS011;36749;37.428;-121.972;2024-02-28T06:57:40;9.32;;;2.72;;
50781;SDS011;36749;37.428;-121.972;2024-02-28T07:00:08;8.85;;;3.35;;
50781;SDS011;36749;37.428;-121.972;2024-02-28T07:02:40;13.63;;;2.80;;
50781;SDS011;36749;37.428;-121.972;2024-02-28T07:05:06;11.13;;;2.60;;
50781;SDS011;36749;37.428;-121.972;2024-02-28T07:07:33;14.35;;;3.75;;
50781;SDS011;36749;37.428;-121.972;2024-02-28T07:09:59;9.63;;;2.72;;
50781;SDS011;36749;37.428;-121.972;2024-02-28T07:12:25;10.13;;;3.03;;
50781;SDS011;36749;37.428;-121.972;2024-02-28T07:14:51;16.08;;;3.95;;
50781;SDS011;36749;37.428;-121.972;2024-02-28T07:17:18;11.52;;;3.33;;
50781;SDS011;36749;37.428;-121.972;2024-02-28T07:19:44;12.07;;;4.40;;
50781;SDS011;36749;37.428;-121.972;2024-02-28T07:22:10;13.02;;;3.13;;
50781;SDS011;36749;37.428;-121.972;2024-02-28T07:24:36;13.15;;;3.40;;
50781;SDS011;36749;37.428;-121.972;2024-02-28T07:27:03;10.77;;;3.53;;
50781;SDS011;36749;37.428;-121.972;2024-02-28T07:29:29;15.52;;;4.03;;
50781;SDS011;36749;37.428;-121.972;2024-02-28T07:31:55;19.38;;;4.43;;
50781;SDS011;36749;37.428;-121.972;2024-02-28T07:34:22;13.82;;;4.45;;
50781;SDS011;36749;37.428;-121.972;2024-02-28T07:36:48;17.27;;;4.43;;
50781;SDS011;36749;37.428;-121.972;2024-02-28T07:39:15;16.40;;;4.20;;
50781;SDS011;36749;37.428;-121.972;2024-02-28T07:41:41;12.68;;;4.30;;
50781;SDS011;36749;37.428;-121.972;2024-02-28T07:44:08;12.45;;;4.38;;
50781;SDS011;36749;37.428;-121.972;2024-02-28T07:46:34;14.73;;;4.63;;
50781;SDS011;36749;37.428;-121.972;2024-02-28T07:49:00;14.60;;;4.55;;
50781;SDS011;36749;37.428;-121.972;2024-02-28T07:51:27;11.82;;;4.80;;
50781;SDS011;36749;37.428;-121.972;2024-02-28T07:53:54;15.70;;;4.93;;
50781;SDS011;36749;37.428;-121.972;2024-02-28T07:56:20;13.35;;;4.82;;
50781;SDS011;36749;37.428;-121.972;2024-02-28T07:58:47;19.08;;;5.53;;
50781;SDS011;36749;37.428;-121.972;2024-02-28T08:01:13;10.23;;;3.97;;
50781;SDS011;36749;37.428;-121.972;2024-02-28T08:03:41;11.27;;;4.20;;
50781;SDS011;36749;37.428;-121.972;2024-02-28T08:06:07;12.07;;;4.30;;
50781;SDS011;36749;37.428;-121.972;2024-02-28T08:08:36;13.48;;;4.70;;
50781;SDS011;36749;37.428;-121.972;2024-02-28T08:11:02;10.80;;;4.20;;
50781;SDS011;36749;37.428;-121.972;2024-02-28T08:13:29;11.85;;;4.18;;
50781;SDS011;36749;37.428;-121.972;2024-02-28T08:15:55;10.80;;;3.85;;
50781;SDS011;36749;37.428;-121.972;2024-02-28T08:18:21;19.73;;;5.18;;
50781;SDS011;36749;37.428;-121.972;2024-02-28T08:20:47;12.98;;;4.25;;
50781;SDS011;36749;37.428;-121.972;2024-02-28T08:23:15;16.80;;;4.78;;
50781;SDS011;36749;37.428;-121.972;2024-02-28T08:25:41;13.25;;;3.80;;
50781;SDS011;36749;37.428;-121.972;2024-02-28T08:28:07;13.85;;;3.70;;
50781;SDS011;36749;37.428;-121.972;2024-02-28T08:30:33;11.18;;;4.22;;
50781;SDS011;36749;37.428;-121.972;2024-02-28T08:32:59;13.63;;;4.30;;
50781;SDS011;36749;37.428;-121.972;2024-02-28T08:35:26;11.63;;;4.25;;
50781;SDS011;36749;37.428;-121.972;2024-02-28T08:37:52;9.02;;;3.55;;
50781;SDS011;36749;37.428;-121.972;2024-02-28T08:40:18;13.27;;;3.92;;
50781;SDS011;36749;37.428;-121.972;2024-02-28T08:42:44;5.32;;;3.10;;
50781;SDS011;36749;37.428;-121.972;2024-02-28T08:45:11;4.90;;;2.75;;
50781;SDS011;36749;37.428;-121.972;2024-02-28T08:47:38;9.82;;;3.10;;
50781;SDS011;36749;37.428;-121.972;2024-02-28T08:50:04;7.05;;;2.80;;
50781;SDS011;36749;37.428;-121.972;2024-02-28T08:52:30;6.03;;;3.25;;
50781;SDS011;36749;37.428;-121.972;2024-02-28T08:54:57;6.85;;;2.88;;
50781;SDS011;36749;37.428;-121.972;2024-02-28T08:57:23;5.88;;;3.00;;
50781;SDS011;36749;37.428;-121.972;2024-02-28T08:59:49;4.85;;;2.65;;
50781;SDS011;36749;37.428;-121.972;2024-02-28T09:02:16;8.98;;;3.05;;
50781;SDS011;36749;37.428;-121.972;2024-02-28T09:04:42;10.65;;;3.28;;
50781;SDS011;36749;37.428;-121.972;2024-02-28T09:07:08;6.25;;;3.00;;
50781;SDS011;36749;37.428;-121.972;2024-02-28T09:09:34;7.55;;;2.72;;
50781;SDS011;36749;37.428;-121.972;2024-02-28T09:12:03;9.68;;;3.42;;
50781;SDS011;36749;37.428;-121.972;2024-02-28T09:14:29;10.45;;;3.50;;
50781;SDS011;36749;37.428;-121.972;2024-02-28T09:16:56;7.50;;;3.33;;
50781;SDS011;36749;37.428;-121.972;2024-02-28T09:19:29;8.50;;;3.38;;
50781;SDS011;36749;37.428;-121.972;2024-02-28T09:21:55;7.63;;;4.00;;
50781;SDS011;36749;37.428;-121.972;2024-02-28T09:24:23;13.10;;;3.45;;
50781;SDS011;36749;37.428;-121.972;2024-02-28T09:26:49;7.07;;;3.05;;
50781;SDS011;36749;37.428;-121.972;2024-02-28T09:29:15;9.27;;;3.33;;
50781;SDS011;36749;37.428;-121.972;2024-02-28T09:31:42;13.38;;;3.58;;
50781;SDS011;36749;37.428;-121.972;2024-02-28T09:34:08;10.43;;;3.95;;
50781;SDS011;36749;37.428;-121.972;2024-02-28T09:36:44;14.35;;;4.10;;
50781;SDS011;36749;37.428;-121.972;2024-02-28T09:39:14;7.20;;;3.90;;
50781;SDS011;36749;37.428;-121.972;2024-02-28T09:41:40;8.32;;;3.33;;
50781;SDS011;36749;37.428;-121.972;2024-02-28T09:44:07;9.07;;;3.63;;
50781;SDS011;36749;37.428;-121.972;2024-02-28T09:46:34;6.78;;;3.55;;
50781;SDS011;36749;37.428;-121.972;2024-02-28T09:49:06;8.73;;;3.80;;
50781;SDS011;36749;37.428;-121.972;2024-02-28T09:51:33;11.40;;;4.10;;
50781;SDS011;36749;37.428;-121.972;2024-02-28T09:54:04;11.63;;;4.47;;
50781;SDS011;36749;37.428;-121.972;2024-02-28T09:56:30;9.20;;;3.85;;
50781;SDS011;36749;37.428;-121.972;2024-02-28T09:58:57;11.77;;;3.88;;
50781;SDS011;36749;37.428;-121.972;2024-02-28T10:01:25;8.75;;;3.25;;
50781;SDS011;36749;37.428;-121.972;2024-02-28T10:03:52;13.48;;;4.95;;
50781;SDS011;36749;37.428;-121.972;2024-02-28T10:06:18;11.23;;;3.85;;
50781;SDS011;36749;37.428;-121.972;2024-02-28T10:08:45;11.85;;;3.97;;
50781;SDS011;36749;37.428;-121.972;2024-02-28T10:11:23;7.15;;;3.90;;
50781;SDS011;36749;37.428;-121.972;2024-02-28T10:13:50;10.40;;;4.13;;
50781;SDS011;36749;37.428;-121.972;2024-02-28T10:16:17;10.80;;;3.70;;
50781;SDS011;36749;37.428;-121.972;2024-02-28T10:18:44;7.47;;;3.45;;
50781;SDS011;36749;37.428;-121.972;2024-02-28T10:21:11;5.47;;;3.05;;
50781;SDS011;36749;37.428;-121.972;2024-02-28T10:23:43;9.73;;;3.13;;
50781;SDS011;36749;37.428;-121.972;2024-02-28T10:26:10;8.52;;;3.00;;
50781;SDS011;36749;37.428;-121.972;2024-02-28T10:28:37;7.53;;;3.33;;
50781;SDS011;36749;37.428;-121.972;2024-02-28T10:31:05;8.43;;;3.40;;
50781;SDS011;36749;37.428;-121.972;2024-02-28T10:33:32;5.43;;;3.03;;
50781;SDS011;36749;37.428;-121.972;2024-02-28T10:36:02;6.63;;;2.90;;
50781;SDS011;36749;37.428;-121.972;2024-02-28T10:38:30;6.63;;;3.10;;
50781;SDS011;36749;37.428;-121.972;2024-02-28T10:40:59;7.68;;;3.60;;
50781;SDS011;36749;37.428;-121.972;2024-02-28T10:43:27;4.70;;;3.10;;
50781;SDS011;36749;37.428;-121.972;2024-02-28T10:45:59;7.38;;;2.78;;
50781;SDS011;36749;37.428;-121.972;2024-02-28T10:48:26;6.20;;;3.05;;
50781;SDS011;36749;37.428;-121.972;2024-02-28T10:50:53;6.50;;;3.00;;
50781;SDS011;36749;37.428;-121.972;2024-02-28T10:53:22;6.57;;;2.97;;
50781;SDS011;36749;37.428;-121.972;2024-02-28T10:58:36;4.95;;;2.88;;
50781;SDS011;36749;37.428;-121.972;2024-02-28T11:01:11;8.70;;;2.92;;
50781;SDS011;36749;37.428;-121.972;2024-02-28T11:03:38;5.80;;;3.13;;
50781;SDS011;36749;37.428;-121.972;2024-02-28T11:06:05;10.48;;;3.00;;
50781;SDS011;36749;37.428;-121.972;2024-02-28T11:08:47;6.28;;;3.35;;
50781;SDS011;36749;37.428;-121.972;2024-02-28T11:11:19;5.68;;;2.80;;
50781;SDS011;36749;37.428;-121.972;2024-02-28T11:13:52;6.95;;;3.28;;
50781;SDS011;36749;37.428;-121.972;2024-02-28T11:16:29;8.55;;;3.25;;
50781;SDS011;36749;37.428;-121.972;2024-02-28T11:18:57;8.20;;;2.88;;
50781;SDS011;36749;37.428;-121.972;2024-02-28T11:21:27;6.90;;;3.35;;
50781;SDS011;36749;37.428;-121.972;2024-02-28T11:24:00;8.57;;;3.42;;
50781;SDS011;36749;37.428;-121.972;2024-02-28T11:26:26;10.63;;;2.97;;
50781;SDS011;36749;37.428;-121.972;2024-02-28T11:28:54;8.32;;;3.15;;
50781;SDS011;36749;37.428;-121.972;2024-02-28T11:31:20;8.85;;;3.75;;
50781;SDS011;36749;37.428;-121.972;2024-02-28T11:33:47;8.98;;;4.07;;
50781;SDS011;36749;37.428;-121.972;2024-02-28T11:36:13;5.32;;;2.95;;
50781;SDS011;36749;37.428;-121.972;2024-02-28T11:38:39;10.90;;;4.07;;
50781;SDS011;36749;37.428;-121.972;2024-02-28T11:41:06;7.38;;;3.55;;
50781;SDS011;36749;37.428;-121.972;2024-02-28T11:43:33;13.65;;;4.50;;
50781;SDS011;36749;37.428;-121.972;2024-02-28T11:46:00;10.10;;;3.40;;
50781;SDS011;36749;37.428;-121.972;2024-02-28T11:48:27;7.97;;;4.15;;
50781;SDS011;36749;37.428;-121.972;2024-02-28T11:50:53;12.05;;;4.07;;
50781;SDS011;36749;37.428;-121.972;2024-02-28T11:53:20;7.28;;;3.88;;
50781;SDS011;36749;37.428;-121.972;2024-02-28T11:55:46;11.95;;;4.55;;
50781;SDS011;36749;37.428;-121.972;2024-02-28T11:58:13;9.05;;;4.22;;
50781;SDS011;36749;37.428;-121.972;2024-02-28T12:00:48;10.68;;;4.20;;
50781;SDS011;36749;37.428;-121.972;2024-02-28T12:03:22;10.05;;;4.07;;
50781;SDS011;36749;37.428;-121.972;2024-02-28T12:05:48;10.60;;;4.18;;
50781;SDS011;36749;37.428;-121.972;2024-02-28T12:08:16;8.73;;;4.40;;
50781;SDS011;36749;37.428;-121.972;2024-02-28T12:10:43;10.98;;;4.82;;
50781;SDS011;36749;37.428;-121.972;2024-02-28T12:13:10;11.07;;;4.32;;
50781;SDS011;36749;37.428;-121.972;2024-02-28T12:15:38;11.20;;;4.55;;
50781;SDS011;36749;37.428;-121.972;2024-02-28T12:18:09;16.10;;;4.68;;
50781;SDS011;36749;37.428;-121.972;2024-02-28T12:20:36;12.75;;;4.47;;
50781;SDS011;36749;37.428;-121.972;2024-02-28T12:23:03;14.02;;;4.55;;
50781;SDS011;36749;37.428;-121.972;2024-02-28T12:25:30;8.25;;;4.30;;
50781;SDS011;36749;37.428;-121.972;2024-02-28T12:27:57;11.02;;;4.75;;
50781;SDS011;36749;37.428;-121.972;2024-02-28T12:30:23;16.73;;;6.13;;
50781;SDS011;36749;37.428;-121.972;2024-02-28T12:32:49;12.00;;;4.53;;
50781;SDS011;36749;37.428;-121.972;2024-02-28T12:35:15;11.20;;;4.45;;
50781;SDS011;36749;37.428;-121.972;2024-02-28T12:37:41;13.82;;;4.30;;
50781;SDS011;36749;37.428;-121.972;2024-02-28T12:40:07;13.13;;;4.97;;
50781;SDS011;36749;37.428;-121.972;2024-02-28T12:42:34;11.80;;;4.93;;
50781;SDS011;36749;37.428;-121.972;2024-02-28T12:45:01;15.43;;;5.63;;
50781;SDS011;36749;37.428;-121.972;2024-02-28T12:47:28;8.65;;;5.00;;
50781;SDS011;36749;37.428;-121.972;2024-02-28T12:49:56;13.77;;;4.93;;
50781;SDS011;36749;37.428;-121.972;2024-02-28T12:52:23;13.75;;;4.47;;
50781;SDS011;36749;37.428;-121.972;2024-02-28T12:54:49;16.92;;;5.45;;
50781;SDS011;36749;37.428;-121.972;2024-02-28T12:57:15;9.63;;;4.60;;
50781;SDS011;36749;37.428;-121.972;2024-02-28T12:59:42;11.88;;;4.53;;
50781;SDS011;36749;37.428;-121.972;2024-02-28T13:02:08;11.15;;;4.50;;
50781;SDS011;36749;37.428;-121.972;2024-02-28T13:04:35;12.57;;;4.15;;
50781;SDS011;36749;37.428;-121.972;2024-02-28T13:07:01;10.43;;;4.35;;
50781;SDS011;36749;37.428;-121.972;2024-02-28T13:09:28;11.93;;;3.90;;
50781;SDS011;36749;37.428;-121.972;2024-02-28T13:11:54;10.80;;;4.00;;
50781;SDS011;36749;37.428;-121.972;2024-02-28T13:14:20;13.95;;;4.47;;
50781;SDS011;36749;37.428;-121.972;2024-02-28T13:16:46;12.32;;;4.82;;
50781;SDS011;36749;37.428;-121.972;2024-02-28T13:19:13;10.88;;;4.45;;
50781;SDS011;36749;37.428;-121.972;2024-02-28T13:21:40;9.85;;;4.00;;
50781;SDS011;36749;37.428;-121.972;2024-02-28T13:24:06;12.02;;;4.65;;
50781;SDS011;36749;37.428;-121.972;2024-02-28T13:26:32;15.80;;;4.78;;
50781;SDS011;36749;37.428;-121.972;2024-02-28T13:28:58;10.80;;;4.60;;
50781;SDS011;36749;37.428;-121.972;2024-02-28T13:31:24;11.38;;;4.55;;
50781;SDS011;36749;37.428;-121.972;2024-02-28T13:33:51;11.48;;;4.88;;
50781;SDS011;36749;37.428;-121.972;2024-02-28T13:36:17;11.63;;;4.65;;
50781;SDS011;36749;37.428;-121.972;2024-02-28T13:38:43;11.93;;;5.97;;
50781;SDS011;36749;37.428;-121.972;2024-02-28T13:41:10;11.60;;;4.53;;
50781;SDS011;36749;37.428;-121.972;2024-02-28T13:43:36;12.38;;;4.90;;
50781;SDS011;36749;37.428;-121.972;2024-02-28T13:46:02;17.10;;;5.07;;
50781;SDS011;36749;37.428;-121.972;2024-02-28T13:48:29;11.35;;;4.07;;
50781;SDS011;36749;37.428;-121.972;2024-02-28T13:50:57;9.93;;;4.20;;
50781;SDS011;36749;37.428;-121.972;2024-02-28T13:53:24;14.25;;;4.88;;
50781;SDS011;36749;37.428;-121.972;2024-02-28T13:55:50;12.27;;;4.13;;
50781;SDS011;36749;37.428;-121.972;2024-02-28T13:58:17;9.50;;;4.00;;
50781;SDS011;36749;37.428;-121.972;2024-02-28T14:00:44;10.85;;;4.47;;
50781;SDS011;36749;37.428;-121.972;2024-02-28T14:03:13;10.32;;;4.28;;